createdAt,value
2017-12-14T00:01:08.369Z,98816.06
2017-12-14T00:03:36.663Z,98811.26
2017-12-14T00:06:04.975Z,98824.79
2017-12-14T00:08:33.283Z,98831.84
2017-12-14T00:11:01.745Z,98828.55
2017-12-14T00:13:30.083Z,98840.64
2017-12-14T00:15:58.407Z,98844.19
2017-12-14T00:18:27.490Z,98848.28
2017-12-14T00:20:56.662Z,98839.39
2017-12-14T00:23:25.008Z,98833.17
2017-12-14T00:25:53.317Z,98825.13
2017-12-14T00:28:22.513Z,98815.53
2017-12-14T00:30:50.815Z,98812.87
2017-12-14T00:33:19.124Z,98787.20
2017-12-14T00:35:48.179Z,98785.99
2017-12-14T00:38:16.497Z,98782.94
2017-12-14T00:40:45.555Z,98772.75
2017-12-14T00:43:13.868Z,98767.53
2017-12-14T00:45:42.181Z,98778.28
2017-12-14T00:48:10.475Z,98793.03
2017-12-14T00:50:38.779Z,98795.76
2017-12-14T00:53:07.077Z,98786.38
2017-12-14T00:55:35.377Z,98794.21
2017-12-14T00:58:03.675Z,98788.70
2017-12-14T01:00:32.766Z,98783.18
2017-12-14T01:03:01.084Z,98776.34
2017-12-14T01:05:29.375Z,98770.53
2017-12-14T01:07:57.668Z,98779.91
2017-12-14T01:10:25.953Z,98785.39
2017-12-14T01:12:54.324Z,98795.69
2017-12-14T01:15:22.631Z,98776.34
2017-12-14T01:17:50.915Z,98772.18
2017-12-14T01:20:19.270Z,98769.97
2017-12-14T01:22:47.601Z,98771.00
2017-12-14T01:25:16.682Z,98772.06
2017-12-14T01:27:45.009Z,98778.53
2017-12-14T01:30:13.330Z,98780.66
2017-12-14T01:32:41.636Z,98781.84
2017-12-14T01:35:09.953Z,98761.06
2017-12-14T01:37:38.247Z,98771.39
2017-12-14T01:40:06.554Z,98764.88
2017-12-14T01:42:34.848Z,98769.52
2017-12-14T01:45:03.138Z,98778.80
2017-12-14T01:47:31.446Z,98781.33
2017-12-14T01:52:35.008Z,98777.84
2017-12-14T01:55:03.304Z,98782.33
2017-12-14T01:57:31.635Z,98775.59
2017-12-14T02:00:00.712Z,98776.81
2017-12-14T02:02:29.024Z,98777.62
2017-12-14T02:04:57.336Z,98782.48
2017-12-14T02:07:25.634Z,98779.03
2017-12-14T02:09:53.918Z,98779.07
2017-12-14T02:12:22.236Z,98786.17
2017-12-14T02:14:51.311Z,98786.14
2017-12-14T02:17:19.662Z,98787.80
2017-12-14T02:19:47.948Z,98788.80
2017-12-14T02:22:16.242Z,98791.52
2017-12-14T02:24:44.552Z,98804.84
2017-12-14T02:27:13.612Z,98820.85
2017-12-14T02:29:42.152Z,98834.75
2017-12-14T02:32:11.214Z,98837.84
2017-12-14T02:34:39.525Z,98831.33
2017-12-14T02:37:08.702Z,98837.63
2017-12-14T02:39:37.006Z,98850.11
2017-12-14T02:42:06.104Z,98853.86
2017-12-14T02:44:34.528Z,98869.44
2017-12-14T02:47:02.827Z,98859.77
2017-12-14T02:49:31.168Z,98859.52
2017-12-14T02:51:59.453Z,98857.55
2017-12-14T02:54:28.478Z,98866.86
2017-12-14T02:56:56.781Z,98859.97
2017-12-14T02:59:25.071Z,98857.37
2017-12-14T03:01:53.372Z,98855.77
2017-12-14T03:04:22.428Z,98857.73
2017-12-14T03:06:50.758Z,98863.73
2017-12-14T03:09:19.830Z,98871.19
2017-12-14T03:11:48.927Z,98875.77
2017-12-14T03:14:17.326Z,98882.41
2017-12-14T03:16:46.388Z,98879.77
2017-12-14T03:19:14.698Z,98890.05
2017-12-14T03:21:42.983Z,98888.15
2017-12-14T03:24:11.280Z,98893.03
2017-12-14T03:26:40.346Z,98885.84
2017-12-14T03:29:08.670Z,98895.59
2017-12-14T03:31:37.042Z,98898.73
2017-12-14T03:34:06.201Z,98903.48
2017-12-14T03:36:34.514Z,98903.38
2017-12-14T03:39:03.588Z,98916.34
2017-12-14T03:41:31.900Z,98921.52
2017-12-14T03:44:00.972Z,98919.06
2017-12-14T03:46:29.278Z,98938.41
2017-12-14T03:48:58.348Z,98937.50
2017-12-14T03:51:26.903Z,98950.13
2017-12-14T03:53:55.210Z,98947.51
2017-12-14T03:56:23.519Z,98955.18
2017-12-14T03:58:51.966Z,98960.43
2017-12-14T04:01:20.269Z,98959.81
2017-12-14T04:03:49.502Z,98967.20
2017-12-14T04:06:18.677Z,98964.17
2017-12-14T04:08:46.970Z,98963.87
2017-12-14T04:11:15.284Z,98960.84
2017-12-14T04:13:43.601Z,98958.92
2017-12-14T04:16:11.900Z,98967.25
2017-12-14T04:18:40.208Z,98964.64
2017-12-14T04:21:09.270Z,98965.13
2017-12-14T04:23:37.590Z,98979.33
2017-12-14T04:26:06.666Z,98976.30
2017-12-14T04:28:34.984Z,98995.37
2017-12-14T04:31:03.282Z,98988.90
2017-12-14T04:33:31.560Z,98993.75
2017-12-14T04:35:59.859Z,99008.06
2017-12-14T04:38:28.156Z,99010.41
2017-12-14T04:40:56.508Z,98985.59
2017-12-14T04:43:24.810Z,98975.64
2017-12-14T04:45:53.232Z,98981.09
2017-12-14T04:48:21.530Z,98984.66
2017-12-14T04:50:50.649Z,98988.71
2017-12-14T04:53:18.944Z,98995.74
2017-12-14T04:55:47.250Z,98994.34
2017-12-14T04:58:15.548Z,98987.02
2017-12-14T05:00:43.877Z,98988.86
2017-12-14T05:03:12.191Z,98993.30
2017-12-14T05:05:40.494Z,98995.95
2017-12-14T05:08:08.782Z,99000.73
2017-12-14T05:10:37.088Z,98995.29
2017-12-14T05:13:05.386Z,98997.13
2017-12-14T05:15:33.680Z,98995.89
2017-12-14T05:18:01.980Z,98996.94
2017-12-14T05:20:30.292Z,98998.36
2017-12-14T05:22:58.602Z,99006.98
2017-12-14T05:25:26.900Z,99010.55
2017-12-14T05:27:55.384Z,99009.23
2017-12-14T05:30:23.698Z,99010.13
2017-12-14T05:32:51.989Z,99023.63
2017-12-14T05:35:20.293Z,99027.77
2017-12-14T05:37:49.380Z,99017.40
2017-12-14T05:40:17.686Z,99021.73
2017-12-14T05:42:46.032Z,99033.02
2017-12-14T05:45:14.342Z,99035.05
2017-12-14T05:47:43.390Z,99031.87
2017-12-14T05:50:11.676Z,99044.56
2017-12-14T05:52:39.998Z,99038.27
2017-12-14T05:55:09.045Z,99047.41
2017-12-14T05:57:37.336Z,99061.41
2017-12-14T06:00:05.626Z,99057.34
2017-12-14T06:02:33.929Z,99056.93
2017-12-14T06:05:02.224Z,99066.35
2017-12-14T06:07:31.278Z,99062.22
2017-12-14T06:09:59.744Z,99074.92
2017-12-14T06:12:28.034Z,99067.20
2017-12-14T06:14:56.365Z,99070.86
2017-12-14T06:17:25.420Z,99070.56
2017-12-14T06:19:53.726Z,99083.44
2017-12-14T06:22:22.022Z,99081.50
2017-12-14T06:24:50.312Z,99087.09
2017-12-14T06:27:19.407Z,99080.79
2017-12-14T06:29:48.472Z,99076.00
2017-12-14T06:32:16.821Z,99094.98
2017-12-14T06:34:45.121Z,99072.39
2017-12-14T06:37:13.422Z,99069.41
2017-12-14T06:39:41.736Z,99079.37
2017-12-14T06:42:10.800Z,99083.08
2017-12-14T06:44:39.094Z,99070.87
2017-12-14T06:47:08.714Z,99072.41
2017-12-14T06:49:37.790Z,99067.92
2017-12-14T06:52:06.130Z,99070.83
2017-12-14T06:54:34.440Z,99068.84
2017-12-14T06:57:02.739Z,99080.45
2017-12-14T06:59:31.052Z,99091.40
2017-12-14T07:02:00.129Z,99098.42
2017-12-14T07:04:28.423Z,99101.28
2017-12-14T07:06:57.519Z,99113.41
2017-12-14T07:09:26.616Z,99109.59
2017-12-14T07:11:55.068Z,99119.30
2017-12-14T07:14:23.367Z,99126.55
2017-12-14T07:16:51.814Z,99120.75
2017-12-14T07:19:20.117Z,99116.17
2017-12-14T07:21:48.421Z,99119.63
2017-12-14T07:24:16.727Z,99120.98
2017-12-14T07:26:45.796Z,99116.31
2017-12-14T07:29:14.095Z,99118.75
2017-12-14T07:31:42.404Z,99112.95
2017-12-14T07:34:11.444Z,99108.51
2017-12-14T07:36:40.674Z,99116.84
2017-12-14T07:39:09.032Z,99094.48
2017-12-14T07:41:37.316Z,99098.67
2017-12-14T07:44:23.470Z,99106.69
2017-12-14T07:47:09.411Z,99103.03
2017-12-14T07:49:37.734Z,99103.64
2017-12-14T07:52:06.031Z,99105.06
2017-12-14T07:54:34.329Z,99106.59
2017-12-14T07:57:02.628Z,99097.55
2017-12-14T07:59:30.987Z,99101.59
2017-12-14T08:02:00.147Z,99102.92
2017-12-14T08:04:29.218Z,99108.69
2017-12-14T08:06:57.521Z,99111.23
2017-12-14T08:09:26.593Z,99119.53
2017-12-14T08:11:54.898Z,99114.86
2017-12-14T08:14:23.967Z,99112.11
2017-12-14T08:16:52.281Z,99125.84
2017-12-14T08:19:21.335Z,99122.95
2017-12-14T08:21:49.617Z,99125.46
2017-12-14T08:24:17.931Z,99121.08
2017-12-14T08:26:47.013Z,99125.03
2017-12-14T08:29:15.308Z,99122.59
2017-12-14T08:31:44.364Z,99118.31
2017-12-14T08:34:12.679Z,99125.54
2017-12-14T08:36:41.005Z,99131.04
2017-12-14T08:39:09.295Z,99121.65
2017-12-14T08:41:38.179Z,99119.95
2017-12-14T08:44:06.560Z,99122.20
2017-12-14T08:46:34.851Z,99120.36
2017-12-14T08:49:03.137Z,99122.47
2017-12-14T08:51:31.421Z,99125.75
2017-12-14T08:53:59.727Z,99127.88
2017-12-14T08:56:28.019Z,99130.06
2017-12-14T08:58:56.735Z,99131.33
2017-12-14T09:01:25.827Z,99139.83
2017-12-14T09:03:54.929Z,99142.05
2017-12-14T09:06:23.984Z,99143.19
2017-12-14T09:08:53.047Z,99147.81
2017-12-14T09:11:21.350Z,99151.88
2017-12-14T09:13:49.655Z,99161.45
2017-12-14T09:16:18.841Z,99162.47
2017-12-14T09:18:47.152Z,99167.77
2017-12-14T09:21:15.477Z,99173.13
2017-12-14T09:23:43.774Z,99168.64
2017-12-14T09:26:12.077Z,99176.05
2017-12-14T09:28:40.360Z,99178.23
2017-12-14T09:31:08.663Z,99178.23
2017-12-14T09:33:37.743Z,99178.37
2017-12-14T09:36:06.059Z,99183.46
2017-12-14T09:38:35.120Z,99181.73
2017-12-14T09:41:04.193Z,99183.45
2017-12-14T09:43:32.494Z,99188.27
2017-12-14T09:46:00.788Z,99187.17
2017-12-14T09:48:29.089Z,99196.03
2017-12-14T09:50:57.377Z,99194.32
2017-12-14T09:53:27.378Z,99192.09
2017-12-14T09:55:55.675Z,99196.77
2017-12-14T09:58:24.091Z,99192.62
2017-12-14T10:00:52.397Z,99199.05
2017-12-14T10:03:20.689Z,99198.70
2017-12-14T10:05:49.030Z,99199.92
2017-12-14T10:08:17.370Z,99192.92
2017-12-14T10:10:45.676Z,99193.73
2017-12-14T10:13:14.767Z,99201.27
2017-12-14T10:15:43.063Z,99192.28
2017-12-14T10:18:11.376Z,99204.24
2017-12-14T10:20:39.666Z,99198.01
2017-12-14T10:23:07.964Z,99194.56
2017-12-14T10:25:36.270Z,99189.61
2017-12-14T10:28:04.549Z,99179.84
2017-12-14T10:30:32.836Z,99173.81
2017-12-14T10:33:01.144Z,99183.21
2017-12-14T10:35:29.461Z,99172.27
2017-12-14T10:37:57.740Z,99164.25
2017-12-14T10:40:26.033Z,99191.89
2017-12-14T10:42:54.352Z,99198.22
2017-12-14T10:45:23.415Z,99198.65
2017-12-14T10:47:51.711Z,99190.88
2017-12-14T10:50:20.023Z,99192.30
2017-12-14T10:52:49.092Z,99190.47
2017-12-14T10:55:17.372Z,99192.52
2017-12-14T10:57:45.691Z,99190.27
2017-12-14T11:00:14.240Z,99195.38
2017-12-14T11:02:42.543Z,99187.31
2017-12-14T11:05:11.602Z,99184.73
2017-12-14T11:07:39.943Z,99195.33
2017-12-14T11:10:08.246Z,99186.35
2017-12-14T11:12:36.541Z,99186.16
2017-12-14T11:15:04.899Z,99188.94
2017-12-14T11:17:33.191Z,99179.09
2017-12-14T11:20:01.497Z,99190.58
2017-12-14T11:22:29.814Z,99182.38
2017-12-14T11:24:58.882Z,99185.73
2017-12-14T11:27:27.174Z,99179.24
2017-12-14T11:29:55.461Z,99180.44
2017-12-14T11:32:23.769Z,99182.27
2017-12-14T11:34:52.854Z,99185.77
2017-12-14T11:37:21.910Z,99171.21
2017-12-14T11:39:50.964Z,99172.42
2017-12-14T11:42:19.280Z,99174.64
2017-12-14T11:44:47.567Z,99171.25
2017-12-14T11:47:15.888Z,99174.14
2017-12-14T11:49:45.024Z,99175.09
2017-12-14T11:52:13.337Z,99169.59
2017-12-14T11:54:41.647Z,99164.75
2017-12-14T11:57:09.964Z,99156.80
2017-12-14T11:59:38.265Z,99161.50
2017-12-14T12:02:06.580Z,99171.41
2017-12-14T12:04:34.886Z,99168.92
2017-12-14T12:07:03.949Z,99163.16
2017-12-14T12:09:32.272Z,99158.02
2017-12-14T12:12:01.415Z,99152.84
2017-12-14T12:14:29.736Z,99150.92
2017-12-14T12:16:58.832Z,99148.59
2017-12-14T12:19:27.133Z,99145.48
2017-12-14T12:21:56.188Z,99148.39
2017-12-14T12:24:24.484Z,99152.54
2017-12-14T12:26:52.778Z,99149.27
2017-12-14T12:29:21.099Z,99142.91
2017-12-14T12:31:49.391Z,99144.28
2017-12-14T12:34:17.681Z,99134.54
2017-12-14T12:36:45.994Z,99134.54
2017-12-14T12:39:14.294Z,99127.45
2017-12-14T12:41:43.356Z,99131.05
2017-12-14T12:44:11.705Z,99124.39
2017-12-14T12:46:39.985Z,99123.87
2017-12-14T12:49:08.291Z,99115.62
2017-12-14T12:51:36.595Z,99114.18
2017-12-14T12:54:04.897Z,99125.30
2017-12-14T12:56:33.967Z,99121.24
2017-12-14T12:59:02.288Z,99119.84
2017-12-14T13:01:31.386Z,99123.73
2017-12-14T13:04:00.459Z,99127.05
2017-12-14T13:06:28.761Z,99121.38
2017-12-14T13:08:57.893Z,99110.71
2017-12-14T13:11:26.205Z,99111.15
2017-12-14T13:13:54.504Z,99111.25
2017-12-14T13:16:22.817Z,99110.87
2017-12-14T13:18:51.941Z,99115.55
2017-12-14T13:21:20.239Z,99106.89
2017-12-14T13:23:48.539Z,99108.30
2017-12-14T13:26:16.868Z,99107.27
2017-12-14T13:28:45.950Z,99091.78
2017-12-14T13:31:15.057Z,99100.55
2017-12-14T13:33:44.179Z,99096.17
2017-12-14T13:36:12.503Z,99097.43
2017-12-14T13:38:40.820Z,99101.45
2017-12-14T13:41:09.145Z,99096.89
2017-12-14T13:43:37.454Z,99086.19
2017-12-14T13:46:05.741Z,99092.53
2017-12-14T13:48:34.103Z,99095.44
2017-12-14T13:51:02.385Z,99097.67
2017-12-14T13:53:30.701Z,99080.22
2017-12-14T13:55:59.760Z,99085.08
2017-12-14T13:58:28.870Z,99085.33
2017-12-14T14:00:57.199Z,99079.96
2017-12-14T14:03:26.266Z,99081.63
2017-12-14T14:05:54.568Z,99088.85
2017-12-14T14:08:23.664Z,99093.46
2017-12-14T14:10:52.731Z,99083.72
2017-12-14T14:13:21.786Z,99081.45
2017-12-14T14:15:50.087Z,99079.68
2017-12-14T14:18:18.454Z,99078.45
2017-12-14T14:20:46.777Z,99077.28
2017-12-14T14:23:15.131Z,99077.77
2017-12-14T14:25:43.425Z,99083.17
2017-12-14T14:28:11.734Z,99073.84
2017-12-14T14:30:40.064Z,99084.48
2017-12-14T14:33:08.370Z,99084.63
2017-12-14T14:35:36.674Z,99084.31
2017-12-14T14:38:05.020Z,99081.61
2017-12-14T14:40:33.315Z,99085.91
2017-12-14T14:43:01.620Z,99075.67
2017-12-14T14:45:29.986Z,99078.08
2017-12-14T14:47:58.291Z,99086.66
2017-12-14T14:50:27.366Z,99077.17
2017-12-14T14:52:55.684Z,99074.45
2017-12-14T14:55:24.752Z,99077.77
2017-12-14T14:57:53.098Z,99083.23
2017-12-14T15:00:21.393Z,99082.10
2017-12-14T15:02:49.703Z,99078.34
2017-12-14T15:05:18.016Z,99070.58
2017-12-14T15:07:47.089Z,99085.41
2017-12-14T15:10:15.415Z,99087.07
2017-12-14T15:12:43.710Z,99083.95
2017-12-14T15:15:12.028Z,99087.16
2017-12-14T15:17:40.466Z,99088.13
2017-12-14T15:20:08.768Z,99098.95
2017-12-14T15:22:37.075Z,99103.04
2017-12-14T15:25:05.379Z,99103.25
2017-12-14T15:27:34.431Z,99109.80
2017-12-14T15:30:02.981Z,99105.30
2017-12-14T15:32:32.032Z,99098.78
2017-12-14T15:35:00.350Z,99090.68
2017-12-14T15:37:29.436Z,99092.31
2017-12-14T15:39:57.759Z,99095.48
2017-12-14T15:42:26.086Z,99089.86
2017-12-14T15:44:54.392Z,99089.48
2017-12-14T15:49:51.732Z,99091.77
2017-12-14T15:52:20.044Z,99076.11
2017-12-14T15:54:49.124Z,99073.88
2017-12-14T15:57:17.423Z,99078.92
2017-12-14T15:59:45.797Z,99078.75
2017-12-14T16:02:14.120Z,99079.66
2017-12-14T16:04:42.437Z,99081.89
2017-12-14T16:07:10.716Z,99079.78
2017-12-14T16:09:39.021Z,99077.97
2017-12-14T16:12:07.331Z,99077.64
2017-12-14T16:14:36.373Z,99074.98
2017-12-14T16:17:04.683Z,99083.46
2017-12-14T16:19:32.975Z,99078.13
2017-12-14T16:22:01.287Z,99083.88
2017-12-14T16:24:29.591Z,99078.31
2017-12-14T16:26:57.889Z,99070.83
2017-12-14T16:29:26.225Z,99079.08
2017-12-14T16:31:55.306Z,99070.72
2017-12-14T16:34:23.616Z,99069.77
2017-12-14T16:36:51.917Z,99053.17
2017-12-14T16:39:20.225Z,99056.87
2017-12-14T16:41:49.287Z,99061.50
2017-12-14T16:44:17.585Z,99065.50
2017-12-14T16:46:45.895Z,99061.09
2017-12-14T16:49:14.180Z,99057.04
2017-12-14T16:51:42.473Z,99054.73
2017-12-14T16:54:11.533Z,99064.22
2017-12-14T16:56:39.833Z,99066.45
2017-12-14T16:59:08.141Z,99054.95
2017-12-14T17:01:37.208Z,99066.91
2017-12-14T17:04:05.499Z,99068.61
2017-12-14T17:06:33.837Z,99068.16
2017-12-14T17:09:02.174Z,99064.26
2017-12-14T17:11:30.471Z,99072.59
2017-12-14T17:13:59.545Z,99059.31
2017-12-14T17:16:27.967Z,99057.67
2017-12-14T17:18:56.760Z,99058.16
2017-12-14T17:21:25.077Z,99067.62
2017-12-14T17:23:53.523Z,99073.33
2017-12-14T17:26:21.882Z,99068.55
2017-12-14T17:28:50.947Z,99070.58
2017-12-14T17:31:19.237Z,99064.98
2017-12-14T17:33:47.549Z,99064.48
2017-12-14T17:36:16.861Z,99061.14
2017-12-14T17:38:45.999Z,99063.58
2017-12-14T17:41:14.503Z,99060.41
2017-12-14T17:43:43.037Z,99066.02
2017-12-14T17:46:11.601Z,99064.30
2017-12-14T17:48:40.123Z,99057.32
2017-12-14T17:51:08.721Z,99057.56
2017-12-14T17:53:37.220Z,99054.27
2017-12-14T17:56:06.045Z,99054.98
2017-12-14T17:58:34.453Z,99054.98
2017-12-14T18:01:02.869Z,99060.17
2017-12-14T18:03:31.310Z,99054.06
2017-12-14T18:05:59.785Z,99060.98
2017-12-14T18:08:28.227Z,99057.13
2017-12-14T18:10:56.864Z,99054.58
2017-12-14T18:13:25.259Z,99058.95
2017-12-14T18:15:53.577Z,99055.80
2017-12-14T18:18:22.135Z,99059.57
2017-12-14T18:20:51.234Z,99057.34
2017-12-14T18:23:20.369Z,99051.33
2017-12-14T18:25:48.841Z,99052.74
2017-12-14T18:28:17.155Z,99052.94
2017-12-14T18:30:45.507Z,99059.03
2017-12-14T18:33:13.870Z,99061.03
2017-12-14T18:35:43.121Z,99064.09
2017-12-14T18:38:11.811Z,99056.95
2017-12-14T18:40:40.428Z,99065.20
2017-12-14T18:43:08.881Z,99065.50
2017-12-14T18:45:37.255Z,99058.80
2017-12-14T18:48:05.843Z,99063.06
2017-12-14T18:50:34.657Z,99055.02
2017-12-14T18:53:03.459Z,99057.76
2017-12-14T18:55:35.661Z,99053.38
2017-12-14T18:58:04.726Z,99050.84
2017-12-14T19:00:33.027Z,99051.56
2017-12-14T19:03:01.329Z,99044.23
2017-12-14T19:05:30.379Z,99042.56
2017-12-14T19:07:58.667Z,99038.45
2017-12-14T19:10:26.968Z,99024.64
2017-12-14T19:12:56.105Z,99022.17
2017-12-14T19:15:24.401Z,99021.90
2017-12-14T19:17:52.703Z,99011.08
2017-12-14T19:20:21.013Z,99019.38
2017-12-14T19:22:49.309Z,99018.71
2017-12-14T19:25:18.384Z,99026.07
2017-12-14T19:27:46.691Z,99022.92
2017-12-14T19:30:16.635Z,99025.70
2017-12-14T19:32:44.992Z,99023.47
2017-12-14T19:35:14.070Z,99025.09
2017-12-14T19:37:42.397Z,99024.38
2017-12-14T19:40:11.546Z,99020.31
2017-12-14T19:42:39.867Z,99019.20
2017-12-14T19:45:08.197Z,99014.34
2017-12-14T19:47:36.525Z,99015.27
2017-12-14T19:50:05.592Z,99023.11
2017-12-14T19:52:33.915Z,99019.35
2017-12-14T19:55:02.209Z,99021.89
2017-12-14T19:57:30.526Z,99021.38
2017-12-14T19:59:58.811Z,99015.19
2017-12-14T20:02:27.106Z,99018.23
2017-12-14T20:04:55.429Z,99016.98
2017-12-14T20:07:23.744Z,99014.55
2017-12-14T20:09:52.047Z,99015.59
2017-12-14T20:12:20.359Z,99017.83
2017-12-14T20:14:49.428Z,99012.84
2017-12-14T20:17:17.733Z,99014.17
2017-12-14T20:19:46.799Z,99015.16
2017-12-14T20:22:15.089Z,99016.15
2017-12-14T20:24:43.415Z,99013.30
2017-12-14T20:27:11.731Z,99013.50
2017-12-14T20:29:40.041Z,99011.27
2017-12-14T20:32:08.338Z,99011.47
2017-12-14T20:34:37.410Z,99008.45
2017-12-14T20:37:05.725Z,99016.18
2017-12-14T20:39:34.775Z,99011.09
2017-12-14T20:42:03.077Z,99008.25
2017-12-14T20:44:31.375Z,99009.40
2017-12-14T20:47:00.441Z,99018.41
2017-12-14T20:49:28.742Z,99007.44
2017-12-14T20:51:57.887Z,99014.55
2017-12-14T20:54:26.184Z,99012.95
2017-12-14T20:56:54.500Z,99016.69
2017-12-14T20:59:22.802Z,99010.39
2017-12-14T21:01:51.875Z,99017.60
2017-12-14T21:04:20.176Z,99012.92
2017-12-14T21:06:48.504Z,99015.34
2017-12-14T21:09:16.824Z,99017.06
2017-12-14T21:11:45.179Z,99007.44
2017-12-14T21:14:13.479Z,99008.25
2017-12-14T21:16:43.379Z,99009.09
2017-12-14T21:19:11.684Z,99006.55
2017-12-14T21:21:40.009Z,99014.58
2017-12-14T21:24:08.315Z,99005.44
2017-12-14T21:26:36.632Z,99011.13
2017-12-14T21:29:04.952Z,99013.66
2017-12-14T21:31:33.258Z,99010.11
2017-12-14T21:34:01.552Z,99012.22
2017-12-14T21:36:29.855Z,99011.91
2017-12-14T21:38:58.198Z,99010.89
2017-12-14T21:41:26.587Z,99013.84
2017-12-14T21:43:54.898Z,99006.73
2017-12-14T21:46:23.197Z,99004.90
2017-12-14T21:48:52.258Z,99004.77
2017-12-14T21:51:20.543Z,98998.36
2017-12-14T21:53:48.846Z,99000.59
2017-12-14T21:56:17.190Z,99002.33
2017-12-14T21:58:45.506Z,98997.66
2017-12-14T22:01:13.808Z,99005.58
2017-12-14T22:03:42.921Z,99008.13
2017-12-14T22:06:11.988Z,99004.26
2017-12-14T22:08:40.292Z,99011.06
2017-12-14T22:11:09.523Z,99010.49
2017-12-14T22:13:37.864Z,99025.63
2017-12-14T22:16:06.177Z,99025.02
2017-12-14T22:18:34.467Z,99020.45
2017-12-14T22:21:02.772Z,99020.42
2017-12-14T22:23:31.135Z,99024.38
2017-12-14T22:25:59.427Z,99022.69
2017-12-14T22:28:27.764Z,99030.30
2017-12-14T22:30:56.847Z,99038.94
2017-12-14T22:33:25.143Z,99037.44
2017-12-14T22:35:54.268Z,99038.45
2017-12-14T22:38:22.557Z,99037.74
2017-12-14T22:40:50.859Z,99034.79
2017-12-14T22:43:19.181Z,99033.19
2017-12-14T22:45:47.481Z,99024.66
2017-12-14T22:48:16.548Z,99030.44
2017-12-14T22:50:44.855Z,99020.88
2017-12-14T22:53:13.926Z,99027.89
2017-12-14T22:55:42.308Z,99031.92
2017-12-14T22:58:10.624Z,99035.08
2017-12-14T23:00:39.683Z,99038.33
2017-12-14T23:03:07.990Z,99049.91
2017-12-14T23:05:37.118Z,99051.64
2017-12-14T23:08:05.423Z,99047.24
2017-12-14T23:10:33.763Z,99033.83
2017-12-14T23:13:02.844Z,99034.20
2017-12-14T23:15:31.184Z,99023.87
2017-12-14T23:17:59.491Z,99034.44
2017-12-14T23:20:27.843Z,99036.47
2017-12-14T23:22:56.132Z,99036.98
2017-12-14T23:25:24.496Z,99032.03
2017-12-14T23:27:52.812Z,99027.55
2017-12-14T23:30:21.134Z,99025.86
2017-12-14T23:32:50.233Z,99026.66
2017-12-14T23:35:18.576Z,99038.65
2017-12-14T23:37:46.875Z,99034.00
2017-12-14T23:40:15.189Z,99027.59
2017-12-14T23:42:43.623Z,99027.61
2017-12-14T23:45:11.932Z,99023.02
2017-12-14T23:47:41.101Z,99026.50
2017-12-14T23:50:09.436Z,99029.63
2017-12-14T23:52:38.497Z,99029.14
2017-12-14T23:55:06.804Z,99027.71
2017-12-14T23:57:35.918Z,99033.39
